Latest Weather Observations for Rabbit Flat

IDD60801

Issued at 9:31 pm CST Tuesday 26 May 2015 (issued every 30 minutes, with the page automatically refreshed every 10 minutes)

About weather observations | Map of weather stations | Latest weather observations for NT | Other Formats
Station Details ID: 015666 Name: RABBIT FLAT Lat: -20.18 Lon: 130.01 Height: 340.0 m
Data from the previous 72 hours. | See also: Recent months at Rabbit Flat
Date/Time
CST
Temp
°C
App
Temp
°C
Dew
Point
Rel
Hum
%
Delta-T
°C
Wind Press
QNH
hPa
Press
MSL
hPa
Rain
since 9 am
mm
Dir
 
Spd
km/h
Gust
km/h
Spd
kts
Gust
kts
26/09:30pm 16.1 15.1 5.4 49 5.2 CALM 0 0 0 0 1019.6 - 0.0
26/09:00pm 16.9 15.7 4.6 44 5.9 CALM 0 0 0 0 1019.5 1018.4 0.0
26/08:30pm 17.1 16.0 4.9 44 5.9 CALM 0 0 0 0 1019.3 - 0.0
26/08:00pm 17.9 16.8 5.0 42 6.3 CALM 0 0 0 0 1019.0 - 0.0
26/07:30pm 19.7 19.0 6.8 43 6.6 CALM 0 0 0 0 1018.5 - 0.0
26/07:00pm 22.2 21.4 6.6 36 8.1 CALM 0 0 0 0 1018.0 - 0.0
26/06:30pm 25.9 25.1 6.7 29 10.2 CALM 0 0 0 0 1017.6 - 0.0
26/06:00pm 28.5 27.6 6.2 24 11.9 CALM 0 0 0 0 1017.3 1016.2 0.0
26/05:30pm 30.0 28.7 4.3 19 13.4 CALM 0 0 0 0 1017.2 - 0.0
26/05:00pm 30.5 29.1 3.6 18 13.9 CALM 0 0 0 0 1017.1 - 0.0
26/04:30pm 30.7 29.1 2.6 16 14.3 CALM 0 0 0 0 1017.0 - 0.0
26/04:00pm 31.4 29.7 1.9 15 14.9 CALM 0 0 0 0 1017.1 - 0.0
26/03:30pm 31.1 29.5 2.4 16 14.6 CALM 0 0 0 0 1017.1 - 0.0
26/03:00pm 31.3 29.6 2.1 15 14.8 CALM 0 0 0 0 1017.4 1016.3 0.0
26/02:30pm 31.4 29.8 2.3 15 14.8 CALM 0 0 0 0 1017.6 - 0.0
26/02:00pm 31.1 29.7 3.5 17 14.3 CALM 0 0 0 0 1018.1 - 0.0
26/01:30pm 30.3 29.0 4.2 19 13.6 CALM 0 0 0 0 1018.7 - 0.0
26/01:00pm 29.8 28.5 3.9 19 13.4 CALM 0 0 0 0 1019.4 - 0.0
26/12:30pm 29.7 28.3 3.3 18 13.5 CALM 0 0 0 0 1019.9 - 0.0
26/12:00pm 28.7 22.9 2.2 18 13.2 NE 22 30 12 16 1020.5 1019.4 0.0
26/11:30am 28.5 27.0 2.9 19 12.9 CALM 0 0 0 0 1021.0 - 0.0
26/11:00am 27.1 25.4 2.1 20 12.3 CALM 0 0 0 0 1021.3 - 0.0
26/10:30am 26.4 24.9 2.8 21 11.7 CALM 0 0 0 0 1021.6 - 0.0
26/10:00am 25.4 23.9 2.9 23 11.1 CALM 0 0 0 0 1021.6 - 0.0
26/09:30am 23.9 22.4 3.1 25 10.2 CALM 0 0 0 0 1021.6 - 0.0
26/09:00am 21.3 19.7 2.3 28 9.0 CALM 0 0 0 0 1021.4 1020.3 0.0
26/08:30am 17.8 16.1 1.8 34 7.3 CALM 0 0 0 0 1021.0 - 0.0
26/08:00am 13.3 11.5 1.4 44 5.2 CALM 0 0 0 0 1021.0 - 0.0
26/07:30am 8.9 7.2 1.8 61 3.0 CALM 0 0 0 0 1020.9 - 0.0
26/07:00am 8.9 7.1 1.5 60 3.1 CALM 0 0 0 0 1020.5 - 0.0
26/06:30am 9.2 7.5 1.9 60 3.1 CALM 0 0 0 0 1020.4 - 0.0
26/06:00am 9.4 7.6 1.3 57 3.4 CALM 0 0 0 0 1020.2 1019.1 0.0
26/05:30am 10.6 8.8 1.4 53 3.9 CALM 0 0 0 0 1019.8 - 0.0
26/05:00am 12.4 10.7 1.9 48 4.6 CALM 0 0 0 0 1019.8 - 0.0
26/04:30am 13.9 12.2 1.6 43 5.4 CALM 0 0 0 0 1019.9 - 0.0
26/04:00am 13.9 12.1 1.3 42 5.5 CALM 0 0 0 0 1020.1 - 0.0
26/03:30am 14.7 13.0 1.9 42 5.7 CALM 0 0 0 0 1020.2 - 0.0
26/03:00am 14.8 12.9 0.5 37 6.2 CALM 0 0 0 0 1020.2 1019.1 0.0
26/02:30am 12.9 11.2 2.0 47 4.8 CALM 0 0 0 0 1020.2 - 0.0
26/02:00am 12.3 10.6 2.0 49 4.5 CALM 0 0 0 0 1020.3 - 0.0
26/01:30am 12.3 10.5 1.4 47 4.7 CALM 0 0 0 0 1020.5 - 0.0
26/01:00am 12.7 10.9 1.1 45 5.0 CALM 0 0 0 0 1020.6 - 0.0
26/12:30am 13.4 11.6 1.5 44 5.2 CALM 0 0 0 0 1020.5 - 0.0
26/12:00am 15.6 13.9 1.8 39 6.2 CALM 0 0 0 0 1020.7 1019.6 0.0
 
Date/Time
CST
Temp
°C
App
Temp
°C
Dew
Point
Rel
Hum
%
Delta-T
°C
Wind Press
QNH
hPa
Press
MSL
hPa
Rain
since 9 am
mm
Dir
 
Spd
km/h
Gust
km/h
Spd
kts
Gust
kts
25/11:30pm 15.3 13.8 3.1 44 5.6 CALM 0 0 0 0 1021.0 - 0.0
25/11:00pm 16.0 14.3 1.8 38 6.4 CALM 0 0 0 0 1021.1 - 0.0
25/10:30pm 17.2 15.5 1.8 35 7.0 CALM 0 0 0 0 1021.3 - 0.0
25/10:00pm 17.6 15.8 1.5 34 7.3 CALM 0 0 0 0 1021.5 - 0.0
25/09:30pm 18.8 17.0 1.2 30 8.0 CALM 0 0 0 0 1021.4 - 0.0
25/09:00pm 20.8 18.8 -0.4 24 9.5 CALM 0 0 0 0 1020.9 1019.8 0.0
25/08:30pm 19.2 17.4 0.9 29 8.3 CALM 0 0 0 0 1020.4 - 0.0
25/08:00pm 18.8 17.3 3.2 35 7.4 CALM 0 0 0 0 1020.4 - 0.0
25/07:30pm 20.0 18.3 1.7 29 8.5 CALM 0 0 0 0 1020.2 - 0.0
25/07:00pm 20.0 18.0 -0.1 26 9.0 CALM 0 0 0 0 1019.9 - 0.0
25/06:30pm 22.7 21.1 2.2 26 9.8 CALM 0 0 0 0 1019.5 - 0.0
25/06:00pm 25.2 23.3 0.4 19 11.7 CALM 0 0 0 0 1019.2 1018.1 0.0
25/05:30pm 26.8 24.6 -1.8 15 13.1 CALM 0 0 0 0 1018.5 - 0.0
25/05:00pm 27.2 24.9 -2.1 14 13.4 CALM 0 0 0 0 1018.1 - 0.0
25/04:30pm 27.3 24.9 -2.8 13 13.6 CALM 0 0 0 0 1017.9 - 0.0
25/04:00pm 27.8 25.3 -3.9 12 14.1 CALM 0 0 0 0 1018.1 - 0.0
25/03:30pm 28.2 25.8 -3.2 12 14.2 CALM 0 0 0 0 1018.3 - 0.0
25/03:00pm 28.5 26.3 -1.9 13 14.1 CALM 0 0 0 0 1018.2 1017.1 0.0
25/02:30pm 27.9 25.3 -4.6 11 14.3 CALM 0 0 0 0 1018.4 - 0.0
25/02:00pm 28.4 26.1 -2.7 13 14.2 CALM 0 0 0 0 1018.7 - 0.0
25/01:30pm 28.1 25.8 -2.1 14 13.9 CALM 0 0 0 0 1019.4 - 0.0
25/01:00pm 27.1 25.0 -0.6 16 13.0 CALM 0 0 0 0 1020.2 - 0.0
25/12:30pm 27.2 25.0 -1.3 15 13.2 CALM 0 0 0 0 1020.8 - 0.0
25/12:00pm 26.4 24.3 -1.0 16 12.7 CALM 0 17 0 9 1021.1 1020.0 0.0
25/11:30am 25.9 19.8 0.3 18 12.1 NE 22 30 12 16 1021.3 - 0.0
25/11:00am 24.7 22.8 0.8 21 11.3 CALM 0 22 0 12 1021.7 - 0.0
25/10:30am 24.3 17.0 0.3 20 11.2 NE 28 35 15 19 1022.1 - 0.0
25/10:00am 23.4 21.5 0.3 21 10.7 CALM 0 0 0 0 1022.3 - 0.0
25/09:30am 21.8 19.9 0.8 25 9.7 CALM 0 0 0 0 1022.2 - 0.0
25/09:00am 19.0 17.1 0.5 29 8.3 CALM 0 0 0 0 1022.2 1021.1 0.0
25/08:30am 14.0 12.3 2.1 44 5.3 CALM 0 0 0 0 1022.3 - 0.0
25/08:00am 12.8 11.0 0.9 44 5.1 CALM 0 0 0 0 1022.1 - 0.0
25/07:30am 8.1 6.1 0.1 57 3.2 CALM 0 0 0 0 1021.7 - 0.0
25/07:00am 7.4 5.5 0.4 61 2.8 CALM 0 0 0 0 1021.5 - 0.0
25/06:30am 7.0 5.0 0.2 62 2.7 CALM 0 0 0 0 1020.9 - 0.0
25/06:00am 7.3 5.3 -0.3 58 3.0 CALM 0 0 0 0 1020.3 1019.2 0.0
25/05:30am 8.9 6.9 0.0 53 3.6 CALM 0 0 0 0 1020.1 - 0.0
25/05:00am 9.0 6.8 -1.2 49 4.0 CALM 0 0 0 0 1020.0 - 0.0
25/04:30am 8.7 6.7 0.0 54 3.5 CALM 0 0 0 0 1020.1 - 0.0
25/04:00am 9.1 7.2 0.3 54 3.6 CALM 0 0 0 0 1020.4 - 0.0
25/03:30am 10.5 8.6 0.7 50 4.1 CALM 0 0 0 0 1020.3 - 0.0
25/03:00am 11.3 9.2 -1.1 42 5.0 CALM 0 0 0 0 1020.2 1019.1 0.0
25/02:30am 9.6 7.6 -0.3 50 4.0 CALM 0 0 0 0 1020.4 - 0.0
25/02:00am 9.7 7.7 0.2 51 3.9 CALM 0 0 0 0 1020.2 - 0.0
25/01:30am 10.2 8.2 -0.1 49 4.2 CALM 0 0 0 0 1020.4 - 0.0
25/01:00am 10.8 8.7 -0.5 45 4.6 CALM 0 0 0 0 1020.4 - 0.0
25/12:30am 11.3 9.3 -0.1 45 4.7 CALM 0 0 0 0 1020.5 - 0.0
25/12:00am 11.7 9.7 -0.4 43 5.0 CALM 0 0 0 0 1020.6 1019.5 0.0
 
Date/Time
CST
Temp
°C
App
Temp
°C
Dew
Point
Rel
Hum
%
Delta-T
°C
Wind Press
QNH
hPa
Press
MSL
hPa
Rain
since 9 am
mm
Dir
 
Spd
km/h
Gust
km/h
Spd
kts
Gust
kts
24/11:30pm 12.1 10.2 0.5 45 4.9 CALM 0 0 0 0 1021.0 - 0.0
24/11:00pm 14.0 11.8 -1.6 34 6.4 CALM 0 0 0 0 1020.9 - 0.0
24/10:30pm 14.5 12.6 0.3 38 6.1 CALM 0 0 0 0 1020.9 - 0.0
24/10:00pm 14.9 12.8 -0.7 34 6.6 CALM 0 0 0 0 1021.1 - 0.0
24/09:30pm 16.0 14.0 0.1 34 6.9 CALM 0 0 0 0 1020.8 - 0.0
24/09:00pm 17.0 14.8 -1.4 28 7.8 CALM 0 0 0 0 1020.5 1019.4 0.0
24/08:30pm 18.0 15.7 -2.1 25 8.5 CALM 0 0 0 0 1020.5 - 0.0
24/08:00pm 18.5 16.5 -0.4 28 8.3 CALM 0 0 0 0 1020.4 - 0.0
24/07:30pm 18.6 16.6 -0.2 28 8.3 CALM 0 0 0 0 1020.1 - 0.0
24/07:00pm 20.0 17.6 -2.9 21 9.7 CALM 0 0 0 0 1019.9 - 0.0
24/06:30pm 21.9 19.5 -3.0 18 10.7 CALM 0 0 0 0 1019.4 - 0.0
24/06:00pm 23.6 21.1 -3.9 16 11.8 CALM 0 0 0 0 1019.2 1018.1 0.0
24/05:30pm 25.0 22.3 -6.3 12 13.0 CALM 0 0 0 0 1018.7 - 0.0
24/05:00pm 25.2 22.4 -7.4 11 13.3 CALM 0 0 0 0 1018.5 - 0.0
24/04:30pm 25.2 22.5 -6.2 12 13.1 CALM 0 0 0 0 1018.6 - 0.0
24/04:00pm 25.5 22.9 -5.3 12 13.1 CALM 0 0 0 0 1018.4 - 0.0
24/03:30pm 26.0 23.6 -3.4 14 13.0 CALM 0 0 0 0 1018.5 - 0.0
24/03:00pm 25.7 23.4 -2.7 15 12.7 CALM 0 0 0 0 1018.6 1017.5 0.0
24/02:30pm 25.5 23.0 -4.3 13 12.9 CALM 0 0 0 0 1019.0 - 0.0
24/02:00pm 25.2 22.8 -3.1 15 12.5 CALM 0 0 0 0 1019.1 - 0.0
24/01:30pm 24.1 19.3 -2.2 17 11.7 E 13 24 7 13 1019.4 - 0.0
24/01:00pm 23.8 21.4 -3.4 16 11.8 CALM 0 0 0 0 1019.8 - 0.0
24/12:30pm 23.0 20.7 -2.2 18 11.1 CALM 0 0 0 0 1020.5 - 0.0
24/12:00pm 23.8 18.4 -1.2 19 11.3 ENE 17 26 9 14 1020.7 1019.6 0.0
24/11:30am 21.1 15.1 -1.8 21 10.0 NE 20 30 11 16 1021.3 - 0.0
24/11:00am 21.4 14.6 -1.6 21 10.1 NE 24 33 13 18 1021.7 - 0.0
24/10:30am 20.7 14.0 -1.4 22 9.7 NE 24 37 13 20 1022.1 - 0.0
24/10:00am 19.8 17.2 -1.7 23 9.3 E 2 41 1 22 1022.1 - 0.0
24/09:30am 18.7 16.4 -2.0 24 8.8 CALM 0 0 0 0 1021.8 - 0.0
24/09:00am 17.1 14.9 -1.6 28 7.9 CALM 0 0 0 0 1021.8 1020.8 0.0
24/08:30am 15.5 13.4 -0.8 33 6.9 CALM 0 0 0 0 1021.8 - 0.0
24/08:00am 13.5 11.5 -0.3 38 5.8 CALM 0 0 0 0 1021.2 - 0.0
24/07:30am 12.0 10.0 -0.3 42 5.1 CALM 0 0 0 0 1020.8 - 0.0
24/07:00am 10.8 8.7 -0.8 44 4.7 CALM 0 0 0 0 1020.7 - 0.0
24/06:30am 10.6 8.6 -0.4 46 4.5 CALM 0 0 0 0 1020.2 - 0.0
24/06:00am 10.5 8.4 -0.6 46 4.5 CALM 0 0 0 0 1020.0 1018.9 0.0
24/05:30am 10.2 8.1 -1.0 45 4.5 CALM 0 0 0 0 1019.9 - 0.0
24/05:00am 10.3 8.2 -0.6 46 4.4 CALM 0 0 0 0 1019.7 - 0.0
24/04:30am 9.1 7.2 0.6 55 3.5 CALM 0 0 0 0 1019.6 - 0.0
24/04:00am 10.5 8.5 -0.3 47 4.4 CALM 0 0 0 0 1019.7 - 0.0
24/03:30am 11.3 9.2 -1.1 42 5.0 CALM 0 0 0 0 1019.6 - 0.0
24/03:00am 11.6 9.7 0.4 46 4.7 CALM 0 0 0 0 1019.7 1018.6 0.0
24/02:30am 12.1 9.9 -1.2 39 5.4 CALM 0 0 0 0 1019.9 - 0.0
24/02:00am 13.1 10.8 -2.0 35 6.1 CALM 0 0 0 0 1019.8 - 0.0
24/01:30am 12.1 10.0 -0.8 41 5.3 CALM 0 0 0 0 1020.1 - 0.0
24/01:00am 12.1 10.1 0.2 44 5.0 CALM 0 0 0 0 1020.2 - 0.0
24/12:30am 12.2 10.1 -1.0 40 5.4 CALM 0 0 0 0 1020.3 - 0.0
24/12:00am 11.8 9.6 -1.7 39 5.4 CALM 0 0 0 0 1020.4 1019.3 0.0
 
Date/Time
CST
Temp
°C
App
Temp
°C
Dew
Point
Rel
Hum
%
Delta-T
°C
Wind Press
QNH
hPa
Press
MSL
hPa
Rain
since 9 am
mm
Dir
 
Spd
km/h
Gust
km/h
Spd
kts
Gust
kts
23/11:30pm 12.1 10.0 -0.5 42 5.2 CALM 0 0 0 0 1020.8 - 0.0
23/11:00pm 13.1 11.0 -0.9 38 5.8 CALM 0 0 0 0 1020.8 - 0.0
23/10:30pm 13.3 11.5 1.0 43 5.3 CALM 0 0 0 0 1020.6 - 0.0
23/10:00pm 14.0 12.0 -0.2 37 6.0 CALM 0 0 0 0 1020.7 - 0.0

Other Formats:

Comma delimited format used in spreadsheet applications
http://www.bom.gov.au/fwo/IDD60801/IDD60801.95322.axf

JavaScript Object Notation format (JSON) in row-major order
http://www.bom.gov.au/fwo/IDD60801/IDD60801.95322.json